sensor_id;sensor_type;location;lat;lon;timestamp;temperature;humidity
5415;DHT22;2730;51.512;7.504;2023-08-08T00:00:28;14.50;26.60
5415;DHT22;2730;51.512;7.504;2023-08-08T00:02:55;14.40;43.70
5415;DHT22;2730;51.512;7.504;2023-08-08T00:05:22;14.40;62.40
5415;DHT22;2730;51.512;7.504;2023-08-08T00:07:49;14.40;71.70
5415;DHT22;2730;51.512;7.504;2023-08-08T00:10:17;14.30;27.70
5415;DHT22;2730;51.512;7.504;2023-08-08T00:12:44;14.30;63.60
5415;DHT22;2730;51.512;7.504;2023-08-08T00:15:10;14.20;87.20
5415;DHT22;2730;51.512;7.504;2023-08-08T00:17:37;14.20;94.60
5415;DHT22;2730;51.512;7.504;2023-08-08T00:20:05;14.20;77.30
5415;DHT22;2730;51.512;7.504;2023-08-08T00:22:32;14.20;49.50
5415;DHT22;2730;51.512;7.504;2023-08-08T00:24:59;14.20;41.00
5415;DHT22;2730;51.512;7.504;2023-08-08T00:27:27;14.30;35.50
5415;DHT22;2730;51.512;7.504;2023-08-08T00:29:54;14.30;35.20
5415;DHT22;2730;51.512;7.504;2023-08-08T00:32:21;14.40;6.80
5415;DHT22;2730;51.512;7.504;2023-08-08T00:34:48;14.40;1.00
5415;DHT22;2730;51.512;7.504;2023-08-08T00:37:14;14.40;1.00
5415;DHT22;2730;51.512;7.504;2023-08-08T00:39:41;14.40;1.00
5415;DHT22;2730;51.512;7.504;2023-08-08T00:42:11;14.50;1.00
5415;DHT22;2730;51.512;7.504;2023-08-08T00:44:39;14.50;1.00
5415;DHT22;2730;51.512;7.504;2023-08-08T00:47:07;14.50;1.00
5415;DHT22;2730;51.512;7.504;2023-08-08T00:49:34;14.50;1.00
5415;DHT22;2730;51.512;7.504;2023-08-08T00:52:01;14.50;1.00
5415;DHT22;2730;51.512;7.504;2023-08-08T00:54:28;14.50;1.00
5415;DHT22;2730;51.512;7.504;2023-08-08T00:56:55;14.50;1.00
5415;DHT22;2730;51.512;7.504;2023-08-08T00:59:23;14.50;1.00
5415;DHT22;2730;51.512;7.504;2023-08-08T01:01:51;14.50;1.00
5415;DHT22;2730;51.512;7.504;2023-08-08T01:04:19;14.60;1.00
5415;DHT22;2730;51.512;7.504;2023-08-08T01:06:53;14.60;99.90
5415;DHT22;2730;51.512;7.504;2023-08-08T01:09:25;14.60;99.90
5415;DHT22;2730;51.512;7.504;2023-08-08T01:11:55;14.70;99.90
5415;DHT22;2730;51.512;7.504;2023-08-08T01:14:24;14.70;99.90
5415;DHT22;2730;51.512;7.504;2023-08-08T01:16:55;14.70;99.90
5415;DHT22;2730;51.512;7.504;2023-08-08T01:19:27;14.70;99.90
5415;DHT22;2730;51.512;7.504;2023-08-08T01:21:54;14.70;25.20
5415;DHT22;2730;51.512;7.504;2023-08-08T01:24:24;14.70;1.00
5415;DHT22;2730;51.512;7.504;2023-08-08T01:26:54;14.60;1.00
5415;DHT22;2730;51.512;7.504;2023-08-08T01:29:21;14.60;1.00
5415;DHT22;2730;51.512;7.504;2023-08-08T01:31:48;14.50;1.00
5415;DHT22;2730;51.512;7.504;2023-08-08T01:34:15;14.60;1.00
5415;DHT22;2730;51.512;7.504;2023-08-08T01:36:46;14.50;69.60
5415;DHT22;2730;51.512;7.504;2023-08-08T01:39:17;14.40;99.90
5415;DHT22;2730;51.512;7.504;2023-08-08T01:41:48;14.50;1.00
5415;DHT22;2730;51.512;7.504;2023-08-08T01:44:16;14.60;1.00
5415;DHT22;2730;51.512;7.504;2023-08-08T01:46:44;14.60;1.00
5415;DHT22;2730;51.512;7.504;2023-08-08T01:49:11;14.60;99.90
5415;DHT22;2730;51.512;7.504;2023-08-08T01:51:38;14.60;99.90
5415;DHT22;2730;51.512;7.504;2023-08-08T01:54:05;14.60;1.00
5415;DHT22;2730;51.512;7.504;2023-08-08T01:56:31;14.60;87.00
5415;DHT22;2730;51.512;7.504;2023-08-08T01:59:00;14.60;1.00
5415;DHT22;2730;51.512;7.504;2023-08-08T02:01:26;14.70;99.90
5415;DHT22;2730;51.512;7.504;2023-08-08T02:03:53;14.60;1.00
5415;DHT22;2730;51.512;7.504;2023-08-08T02:06:20;14.60;1.00
5415;DHT22;2730;51.512;7.504;2023-08-08T02:08:47;14.60;1.00
5415;DHT22;2730;51.512;7.504;2023-08-08T02:11:13;14.50;1.00
5415;DHT22;2730;51.512;7.504;2023-08-08T02:13:40;14.40;99.90
5415;DHT22;2730;51.512;7.504;2023-08-08T02:16:08;14.40;1.00
5415;DHT22;2730;51.512;7.504;2023-08-08T02:18:35;14.30;1.00
5415;DHT22;2730;51.512;7.504;2023-08-08T02:21:06;14.30;1.00
5415;DHT22;2730;51.512;7.504;2023-08-08T02:23:32;14.20;1.00
5415;DHT22;2730;51.512;7.504;2023-08-08T02:25:59;14.10;99.90
5415;DHT22;2730;51.512;7.504;2023-08-08T02:28:26;14.10;69.30
5415;DHT22;2730;51.512;7.504;2023-08-08T02:30:53;14.10;99.90
5415;DHT22;2730;51.512;7.504;2023-08-08T02:33:21;14.10;1.00
5415;DHT22;2730;51.512;7.504;2023-08-08T02:35:48;14.20;1.00
5415;DHT22;2730;51.512;7.504;2023-08-08T02:38:15;14.20;1.00
5415;DHT22;2730;51.512;7.504;2023-08-08T02:40:42;14.20;1.00
5415;DHT22;2730;51.512;7.504;2023-08-08T02:43:08;14.30;1.00
5415;DHT22;2730;51.512;7.504;2023-08-08T02:45:36;14.40;99.90
5415;DHT22;2730;51.512;7.504;2023-08-08T02:48:04;14.50;1.00
5415;DHT22;2730;51.512;7.504;2023-08-08T02:50:32;14.40;1.00
5415;DHT22;2730;51.512;7.504;2023-08-08T02:52:59;14.30;99.90
5415;DHT22;2730;51.512;7.504;2023-08-08T02:55:26;14.30;1.00
5415;DHT22;2730;51.512;7.504;2023-08-08T02:57:53;14.20;1.00
5415;DHT22;2730;51.512;7.504;2023-08-08T03:00:20;14.30;1.00
5415;DHT22;2730;51.512;7.504;2023-08-08T03:02:46;14.30;99.90
5415;DHT22;2730;51.512;7.504;2023-08-08T03:05:13;14.40;54.40
5415;DHT22;2730;51.512;7.504;2023-08-08T03:07:41;14.40;1.00
5415;DHT22;2730;51.512;7.504;2023-08-08T03:10:08;14.40;1.00
5415;DHT22;2730;51.512;7.504;2023-08-08T03:12:36;14.50;1.00
5415;DHT22;2730;51.512;7.504;2023-08-08T03:15:05;14.40;1.00
5415;DHT22;2730;51.512;7.504;2023-08-08T03:17:32;14.50;1.00
5415;DHT22;2730;51.512;7.504;2023-08-08T03:20:00;14.50;1.00
5415;DHT22;2730;51.512;7.504;2023-08-08T03:22:27;14.40;1.00
5415;DHT22;2730;51.512;7.504;2023-08-08T03:24:55;14.50;1.00
5415;DHT22;2730;51.512;7.504;2023-08-08T03:27:22;14.40;99.90
5415;DHT22;2730;51.512;7.504;2023-08-08T03:29:48;14.40;1.00
5415;DHT22;2730;51.512;7.504;2023-08-08T03:32:15;14.40;1.00
5415;DHT22;2730;51.512;7.504;2023-08-08T03:34:42;14.40;90.20
5415;DHT22;2730;51.512;7.504;2023-08-08T03:37:09;14.30;99.90
5415;DHT22;2730;51.512;7.504;2023-08-08T03:39:35;14.30;1.00
5415;DHT22;2730;51.512;7.504;2023-08-08T03:42:04;14.30;1.00
5415;DHT22;2730;51.512;7.504;2023-08-08T03:44:31;14.30;1.00
5415;DHT22;2730;51.512;7.504;2023-08-08T03:46:58;14.20;1.00
5415;DHT22;2730;51.512;7.504;2023-08-08T03:49:25;14.10;1.00
5415;DHT22;2730;51.512;7.504;2023-08-08T03:51:51;14.10;14.80
5415;DHT22;2730;51.512;7.504;2023-08-08T03:54:18;14.20;25.80
5415;DHT22;2730;51.512;7.504;2023-08-08T03:56:45;14.10;30.50
5415;DHT22;2730;51.512;7.504;2023-08-08T03:59:13;14.10;76.90
5415;DHT22;2730;51.512;7.504;2023-08-08T04:01:40;14.10;99.40
5415;DHT22;2730;51.512;7.504;2023-08-08T04:04:06;14.10;39.80
5415;DHT22;2730;51.512;7.504;2023-08-08T04:06:33;14.10;48.50
5415;DHT22;2730;51.512;7.504;2023-08-08T04:09:00;14.10;35.20
5415;DHT22;2730;51.512;7.504;2023-08-08T04:11:27;14.10;63.70
5415;DHT22;2730;51.512;7.504;2023-08-08T04:13:54;14.00;83.40
5415;DHT22;2730;51.512;7.504;2023-08-08T04:16:22;13.90;99.90
5415;DHT22;2730;51.512;7.504;2023-08-08T04:18:49;13.90;99.90
5415;DHT22;2730;51.512;7.504;2023-08-08T04:21:15;13.90;99.90
5415;DHT22;2730;51.512;7.504;2023-08-08T04:23:42;13.80;99.90
5415;DHT22;2730;51.512;7.504;2023-08-08T04:26:09;13.80;99.90
5415;DHT22;2730;51.512;7.504;2023-08-08T04:28:36;13.80;99.90
5415;DHT22;2730;51.512;7.504;2023-08-08T04:31:02;13.80;99.90
5415;DHT22;2730;51.512;7.504;2023-08-08T04:33:30;13.80;99.90
5415;DHT22;2730;51.512;7.504;2023-08-08T04:35:57;13.80;99.90
5415;DHT22;2730;51.512;7.504;2023-08-08T04:38:24;13.80;99.90
5415;DHT22;2730;51.512;7.504;2023-08-08T04:40:51;13.80;99.90
5415;DHT22;2730;51.512;7.504;2023-08-08T04:43:18;13.80;99.90
5415;DHT22;2730;51.512;7.504;2023-08-08T04:45:44;13.80;99.90
5415;DHT22;2730;51.512;7.504;2023-08-08T04:48:11;13.80;99.90
5415;DHT22;2730;51.512;7.504;2023-08-08T04:50:39;13.70;99.90
5415;DHT22;2730;51.512;7.504;2023-08-08T04:53:06;13.80;99.90
5415;DHT22;2730;51.512;7.504;2023-08-08T04:55:33;13.70;99.90
5415;DHT22;2730;51.512;7.504;2023-08-08T04:58:00;13.80;99.90
5415;DHT22;2730;51.512;7.504;2023-08-08T05:00:26;13.80;99.90
5415;DHT22;2730;51.512;7.504;2023-08-08T05:02:53;13.80;99.90
5415;DHT22;2730;51.512;7.504;2023-08-08T05:05:20;13.80;99.90
5415;DHT22;2730;51.512;7.504;2023-08-08T05:07:48;13.80;99.90
5415;DHT22;2730;51.512;7.504;2023-08-08T05:10:15;13.80;99.90
5415;DHT22;2730;51.512;7.504;2023-08-08T05:12:42;13.80;99.90
5415;DHT22;2730;51.512;7.504;2023-08-08T05:15:09;13.80;99.90
5415;DHT22;2730;51.512;7.504;2023-08-08T05:17:36;13.90;99.90
5415;DHT22;2730;51.512;7.504;2023-08-08T05:20:03;14.00;99.90
5415;DHT22;2730;51.512;7.504;2023-08-08T05:22:30;14.00;99.90
5415;DHT22;2730;51.512;7.504;2023-08-08T05:24:58;14.00;99.90
5415;DHT22;2730;51.512;7.504;2023-08-08T05:27:25;14.00;99.90
5415;DHT22;2730;51.512;7.504;2023-08-08T05:29:52;14.00;99.90
5415;DHT22;2730;51.512;7.504;2023-08-08T05:32:18;14.10;99.90
5415;DHT22;2730;51.512;7.504;2023-08-08T05:34:45;14.10;99.90
5415;DHT22;2730;51.512;7.504;2023-08-08T05:37:12;14.00;99.90
5415;DHT22;2730;51.512;7.504;2023-08-08T05:39:39;14.10;99.90
5415;DHT22;2730;51.512;7.504;2023-08-08T05:42:07;14.20;99.90
5415;DHT22;2730;51.512;7.504;2023-08-08T05:44:34;14.20;99.90
5415;DHT22;2730;51.512;7.504;2023-08-08T05:47:01;14.20;99.90
5415;DHT22;2730;51.512;7.504;2023-08-08T05:49:27;14.30;99.90
5415;DHT22;2730;51.512;7.504;2023-08-08T05:51:54;14.20;99.90
5415;DHT22;2730;51.512;7.504;2023-08-08T05:54:21;14.20;99.90
5415;DHT22;2730;51.512;7.504;2023-08-08T05:56:47;14.20;99.90
5415;DHT22;2730;51.512;7.504;2023-08-08T05:59:16;14.20;99.90
5415;DHT22;2730;51.512;7.504;2023-08-08T06:01:42;14.30;99.90
5415;DHT22;2730;51.512;7.504;2023-08-08T06:04:10;14.30;99.90
5415;DHT22;2730;51.512;7.504;2023-08-08T06:06:36;14.40;99.90
5415;DHT22;2730;51.512;7.504;2023-08-08T06:09:03;14.40;99.90
5415;DHT22;2730;51.512;7.504;2023-08-08T06:11:30;14.50;99.90
5415;DHT22;2730;51.512;7.504;2023-08-08T06:13:57;14.60;99.90
5415;DHT22;2730;51.512;7.504;2023-08-08T06:16:25;14.70;99.90
5415;DHT22;2730;51.512;7.504;2023-08-08T06:18:53;14.70;99.90
5415;DHT22;2730;51.512;7.504;2023-08-08T06:21:19;14.70;99.90
5415;DHT22;2730;51.512;7.504;2023-08-08T06:23:46;14.70;99.90
5415;DHT22;2730;51.512;7.504;2023-08-08T06:26:14;14.60;99.90
5415;DHT22;2730;51.512;7.504;2023-08-08T06:28:41;14.70;99.90
5415;DHT22;2730;51.512;7.504;2023-08-08T06:31:08;14.80;99.90
5415;DHT22;2730;51.512;7.504;2023-08-08T06:33:36;14.80;99.90
5415;DHT22;2730;51.512;7.504;2023-08-08T06:36:03;14.80;99.90
5415;DHT22;2730;51.512;7.504;2023-08-08T06:38:30;14.80;99.90
5415;DHT22;2730;51.512;7.504;2023-08-08T06:40:59;14.80;99.90
5415;DHT22;2730;51.512;7.504;2023-08-08T06:43:26;14.80;99.90
5415;DHT22;2730;51.512;7.504;2023-08-08T06:45:52;14.90;99.90
5415;DHT22;2730;51.512;7.504;2023-08-08T06:48:19;15.00;99.90
5415;DHT22;2730;51.512;7.504;2023-08-08T06:50:47;15.20;97.90
5415;DHT22;2730;51.512;7.504;2023-08-08T06:53:14;15.30;73.00
5415;DHT22;2730;51.512;7.504;2023-08-08T06:55:41;15.30;60.60
5415;DHT22;2730;51.512;7.504;2023-08-08T06:58:08;15.40;54.80
5415;DHT22;2730;51.512;7.504;2023-08-08T07:00:35;15.50;88.30
5415;DHT22;2730;51.512;7.504;2023-08-08T07:03:02;15.50;84.10
5415;DHT22;2730;51.512;7.504;2023-08-08T07:05:28;15.70;29.40
5415;DHT22;2730;51.512;7.504;2023-08-08T07:07:57;15.70;1.00
5415;DHT22;2730;51.512;7.504;2023-08-08T07:10:23;15.60;11.30
5415;DHT22;2730;51.512;7.504;2023-08-08T07:12:50;15.70;1.00
5415;DHT22;2730;51.512;7.504;2023-08-08T07:15:17;16.20;1.00
5415;DHT22;2730;51.512;7.504;2023-08-08T07:17:44;16.50;1.00
5415;DHT22;2730;51.512;7.504;2023-08-08T07:20:11;16.60;99.90
5415;DHT22;2730;51.512;7.504;2023-08-08T07:22:40;16.50;99.90
5415;DHT22;2730;51.512;7.504;2023-08-08T07:25:08;16.60;99.90
5415;DHT22;2730;51.512;7.504;2023-08-08T07:27:36;16.70;99.90
5415;DHT22;2730;51.512;7.504;2023-08-08T07:30:04;16.80;24.10
5415;DHT22;2730;51.512;7.504;2023-08-08T07:32:32;16.70;1.00
5415;DHT22;2730;51.512;7.504;2023-08-08T07:34:59;17.10;99.90
5415;DHT22;2730;51.512;7.504;2023-08-08T07:37:28;17.80;99.90
5415;DHT22;2730;51.512;7.504;2023-08-08T07:39:55;17.70;1.00
5415;DHT22;2730;51.512;7.504;2023-08-08T07:42:23;17.50;30.90
5415;DHT22;2730;51.512;7.504;2023-08-08T07:44:50;17.50;99.90
5415;DHT22;2730;51.512;7.504;2023-08-08T07:47:16;18.50;1.00
5415;DHT22;2730;51.512;7.504;2023-08-08T07:49:43;18.60;99.90
5415;DHT22;2730;51.512;7.504;2023-08-08T07:52:10;18.40;1.00
5415;DHT22;2730;51.512;7.504;2023-08-08T07:54:37;18.40;1.00
5415;DHT22;2730;51.512;7.504;2023-08-08T07:57:04;18.20;1.00
5415;DHT22;2730;51.512;7.504;2023-08-08T07:59:32;18.00;1.00
5415;DHT22;2730;51.512;7.504;2023-08-08T08:01:59;18.60;99.90
5415;DHT22;2730;51.512;7.504;2023-08-08T08:04:25;19.00;1.00
5415;DHT22;2730;51.512;7.504;2023-08-08T08:06:52;19.20;99.90
5415;DHT22;2730;51.512;7.504;2023-08-08T08:09:19;20.20;1.00
5415;DHT22;2730;51.512;7.504;2023-08-08T08:11:46;21.20;99.90
5415;DHT22;2730;51.512;7.504;2023-08-08T08:14:12;22.10;1.00
5415;DHT22;2730;51.512;7.504;2023-08-08T08:16:40;22.90;99.90
5415;DHT22;2730;51.512;7.504;2023-08-08T08:19:07;23.60;99.90
5415;DHT22;2730;51.512;7.504;2023-08-08T08:21:34;23.80;30.40
5415;DHT22;2730;51.512;7.504;2023-08-08T08:24:01;23.70;43.50
5415;DHT22;2730;51.512;7.504;2023-08-08T08:26:28;23.60;1.00
5415;DHT22;2730;51.512;7.504;2023-08-08T08:28:55;24.10;1.00
5415;DHT22;2730;51.512;7.504;2023-08-08T08:31:22;24.20;1.00
5415;DHT22;2730;51.512;7.504;2023-08-08T08:33:50;24.30;1.00
5415;DHT22;2730;51.512;7.504;2023-08-08T08:36:17;24.90;1.00
5415;DHT22;2730;51.512;7.504;2023-08-08T08:38:43;25.30;1.00
5415;DHT22;2730;51.512;7.504;2023-08-08T08:41:15;25.70;1.00
5415;DHT22;2730;51.512;7.504;2023-08-08T08:43:43;24.80;1.00
5415;DHT22;2730;51.512;7.504;2023-08-08T08:46:11;24.70;1.00
5415;DHT22;2730;51.512;7.504;2023-08-08T08:48:38;24.30;1.00
5415;DHT22;2730;51.512;7.504;2023-08-08T08:51:06;24.40;1.00
5415;DHT22;2730;51.512;7.504;2023-08-08T08:53:33;25.00;1.00
5415;DHT22;2730;51.512;7.504;2023-08-08T08:56:04;25.60;1.00
5415;DHT22;2730;51.512;7.504;2023-08-08T08:58:31;26.00;99.90
5415;DHT22;2730;51.512;7.504;2023-08-08T09:00:58;25.90;99.90
5415;DHT22;2730;51.512;7.504;2023-08-08T09:03:25;25.40;99.90
5415;DHT22;2730;51.512;7.504;2023-08-08T09:05:52;23.90;1.00
5415;DHT22;2730;51.512;7.504;2023-08-08T09:08:22;23.50;1.00
5415;DHT22;2730;51.512;7.504;2023-08-08T09:10:49;23.40;99.90
5415;DHT22;2730;51.512;7.504;2023-08-08T09:13:16;22.90;1.00
5415;DHT22;2730;51.512;7.504;2023-08-08T09:15:47;23.00;1.00
5415;DHT22;2730;51.512;7.504;2023-08-08T09:18:14;22.20;1.00
5415;DHT22;2730;51.512;7.504;2023-08-08T09:20:41;21.40;1.00
5415;DHT22;2730;51.512;7.504;2023-08-08T09:23:09;20.90;91.50
5415;DHT22;2730;51.512;7.504;2023-08-08T09:25:37;21.20;1.00
5415;DHT22;2730;51.512;7.504;2023-08-08T09:28:04;21.00;1.00
5415;DHT22;2730;51.512;7.504;2023-08-08T09:30:31;20.60;25.10
5415;DHT22;2730;51.512;7.504;2023-08-08T09:32:58;20.20;99.90
5415;DHT22;2730;51.512;7.504;2023-08-08T09:35:25;19.90;99.90
5415;DHT22;2730;51.512;7.504;2023-08-08T09:37:53;20.00;99.90
5415;DHT22;2730;51.512;7.504;2023-08-08T09:40:21;19.90;99.90
5415;DHT22;2730;51.512;7.504;2023-08-08T09:42:51;19.80;99.90
5415;DHT22;2730;51.512;7.504;2023-08-08T09:45:18;19.80;99.90
5415;DHT22;2730;51.512;7.504;2023-08-08T09:47:45;19.50;99.90
5415;DHT22;2730;51.512;7.504;2023-08-08T09:50:12;19.50;99.90
5415;DHT22;2730;51.512;7.504;2023-08-08T09:52:38;19.80;99.90
5415;DHT22;2730;51.512;7.504;2023-08-08T09:55:06;19.90;64.30
5415;DHT22;2730;51.512;7.504;2023-08-08T09:57:33;19.60;99.90
5415;DHT22;2730;51.512;7.504;2023-08-08T10:00:01;19.30;99.90
5415;DHT22;2730;51.512;7.504;2023-08-08T10:02:31;19.20;99.90
5415;DHT22;2730;51.512;7.504;2023-08-08T10:04:59;19.30;99.90
5415;DHT22;2730;51.512;7.504;2023-08-08T10:07:26;20.00;99.90
5415;DHT22;2730;51.512;7.504;2023-08-08T10:09:53;20.60;56.00
5415;DHT22;2730;51.512;7.504;2023-08-08T10:12:20;20.60;99.90
5415;DHT22;2730;51.512;7.504;2023-08-08T10:14:47;21.50;1.00
5415;DHT22;2730;51.512;7.504;2023-08-08T10:17:16;21.90;1.00
5415;DHT22;2730;51.512;7.504;2023-08-08T10:19:51;21.40;1.00
5415;DHT22;2730;51.512;7.504;2023-08-08T10:22:21;20.90;1.00
5415;DHT22;2730;51.512;7.504;2023-08-08T10:24:51;20.50;1.00
5415;DHT22;2730;51.512;7.504;2023-08-08T10:27:28;20.20;1.00
5415;DHT22;2730;51.512;7.504;2023-08-08T10:30:01;20.20;1.00
5415;DHT22;2730;51.512;7.504;2023-08-08T10:32:38;19.90;1.00
5415;DHT22;2730;51.512;7.504;2023-08-08T10:35:06;19.70;36.20
5415;DHT22;2730;51.512;7.504;2023-08-08T10:37:33;19.30;79.70
5415;DHT22;2730;51.512;7.504;2023-08-08T10:40:00;18.90;99.90
5415;DHT22;2730;51.512;7.504;2023-08-08T10:42:31;18.70;99.90
5415;DHT22;2730;51.512;7.504;2023-08-08T10:45:01;18.50;99.90
5415;DHT22;2730;51.512;7.504;2023-08-08T10:47:34;18.40;1.00
5415;DHT22;2730;51.512;7.504;2023-08-08T10:50:05;18.40;1.00
5415;DHT22;2730;51.512;7.504;2023-08-08T10:52:33;18.30;1.00
5415;DHT22;2730;51.512;7.504;2023-08-08T10:55:01;18.30;99.90
5415;DHT22;2730;51.512;7.504;2023-08-08T10:57:28;18.40;99.90
5415;DHT22;2730;51.512;7.504;2023-08-08T11:00:16;18.40;99.90
5415;DHT22;2730;51.512;7.504;2023-08-08T11:02:45;18.40;99.90
5415;DHT22;2730;51.512;7.504;2023-08-08T11:05:14;18.20;1.00
5415;DHT22;2730;51.512;7.504;2023-08-08T11:07:42;18.20;1.00
5415;DHT22;2730;51.512;7.504;2023-08-08T11:10:09;18.10;1.00
5415;DHT22;2730;51.512;7.504;2023-08-08T11:12:36;17.90;1.00
5415;DHT22;2730;51.512;7.504;2023-08-08T11:15:04;17.90;1.00
5415;DHT22;2730;51.512;7.504;2023-08-08T11:17:32;17.90;1.00
5415;DHT22;2730;51.512;7.504;2023-08-08T11:20:00;17.70;1.00
5415;DHT22;2730;51.512;7.504;2023-08-08T11:22:28;17.70;77.90
5415;DHT22;2730;51.512;7.504;2023-08-08T11:24:57;17.60;99.90
5415;DHT22;2730;51.512;7.504;2023-08-08T11:27:28;17.50;99.90
5415;DHT22;2730;51.512;7.504;2023-08-08T11:29:56;17.50;99.90
5415;DHT22;2730;51.512;7.504;2023-08-08T11:32:24;17.40;99.90
5415;DHT22;2730;51.512;7.504;2023-08-08T11:34:52;17.30;1.00
5415;DHT22;2730;51.512;7.504;2023-08-08T11:37:21;17.10;1.00
5415;DHT22;2730;51.512;7.504;2023-08-08T11:39:49;16.90;1.00
5415;DHT22;2730;51.512;7.504;2023-08-08T11:42:16;16.80;1.00
5415;DHT22;2730;51.512;7.504;2023-08-08T11:44:43;16.90;99.90
5415;DHT22;2730;51.512;7.504;2023-08-08T11:47:10;17.10;99.90
5415;DHT22;2730;51.512;7.504;2023-08-08T11:49:41;17.60;26.60
5415;DHT22;2730;51.512;7.504;2023-08-08T11:52:08;18.00;99.90
5415;DHT22;2730;51.512;7.504;2023-08-08T11:54:38;18.30;99.90
5415;DHT22;2730;51.512;7.504;2023-08-08T11:57:05;18.20;50.70
5415;DHT22;2730;51.512;7.504;2023-08-08T11:59:31;18.00;99.90
5415;DHT22;2730;51.512;7.504;2023-08-08T12:01:58;18.00;99.90
5415;DHT22;2730;51.512;7.504;2023-08-08T12:04:26;18.10;99.90
5415;DHT22;2730;51.512;7.504;2023-08-08T12:07:01;18.20;99.90
5415;DHT22;2730;51.512;7.504;2023-08-08T12:09:30;18.30;99.90
5415;DHT22;2730;51.512;7.504;2023-08-08T12:12:00;18.50;99.90
5415;DHT22;2730;51.512;7.504;2023-08-08T12:14:27;19.10;99.90
5415;DHT22;2730;51.512;7.504;2023-08-08T12:16:54;19.50;99.90
5415;DHT22;2730;51.512;7.504;2023-08-08T12:19:23;19.60;1.00
5415;DHT22;2730;51.512;7.504;2023-08-08T12:21:50;19.80;1.00
5415;DHT22;2730;51.512;7.504;2023-08-08T12:24:18;19.90;1.00
5415;DHT22;2730;51.512;7.504;2023-08-08T12:26:44;20.00;99.90
5415;DHT22;2730;51.512;7.504;2023-08-08T12:29:13;20.20;99.90
5415;DHT22;2730;51.512;7.504;2023-08-08T12:31:39;20.30;99.90
5415;DHT22;2730;51.512;7.504;2023-08-08T12:34:06;20.20;99.90
5415;DHT22;2730;51.512;7.504;2023-08-08T12:36:34;20.20;99.90
5415;DHT22;2730;51.512;7.504;2023-08-08T12:39:01;20.20;99.90
5415;DHT22;2730;51.512;7.504;2023-08-08T12:41:27;20.10;99.90
5415;DHT22;2730;51.512;7.504;2023-08-08T12:43:56;20.30;99.90
5415;DHT22;2730;51.512;7.504;2023-08-08T12:46:24;20.30;99.90
5415;DHT22;2730;51.512;7.504;2023-08-08T12:48:51;20.20;99.90
5415;DHT22;2730;51.512;7.504;2023-08-08T12:51:18;20.40;99.90
5415;DHT22;2730;51.512;7.504;2023-08-08T12:53:44;20.20;99.90
5415;DHT22;2730;51.512;7.504;2023-08-08T12:56:11;20.30;99.90
5415;DHT22;2730;51.512;7.504;2023-08-08T12:58:38;20.50;97.20
5415;DHT22;2730;51.512;7.504;2023-08-08T13:01:06;20.70;48.70
5415;DHT22;2730;51.512;7.504;2023-08-08T13:03:34;20.70;1.00
5415;DHT22;2730;51.512;7.504;2023-08-08T13:06:01;20.60;33.40
5415;DHT22;2730;51.512;7.504;2023-08-08T13:08:28;20.50;30.30
5415;DHT22;2730;51.512;7.504;2023-08-08T13:10:55;20.30;49.90
5415;DHT22;2730;51.512;7.504;2023-08-08T13:13:21;20.20;64.40
5415;DHT22;2730;51.512;7.504;2023-08-08T13:15:50;20.20;98.80
5415;DHT22;2730;51.512;7.504;2023-08-08T13:18:17;20.20;99.90
5415;DHT22;2730;51.512;7.504;2023-08-08T13:20:45;20.10;99.90
5415;DHT22;2730;51.512;7.504;2023-08-08T13:23:12;20.00;99.90
5415;DHT22;2730;51.512;7.504;2023-08-08T13:25:39;19.70;99.90
5415;DHT22;2730;51.512;7.504;2023-08-08T13:28:07;19.50;99.90
5415;DHT22;2730;51.512;7.504;2023-08-08T13:30:33;19.60;99.90
5415;DHT22;2730;51.512;7.504;2023-08-08T13:33:01;19.60;99.90
5415;DHT22;2730;51.512;7.504;2023-08-08T13:35:29;19.80;99.90
5415;DHT22;2730;51.512;7.504;2023-08-08T13:37:57;19.80;99.90
5415;DHT22;2730;51.512;7.504;2023-08-08T13:40:24;19.80;1.00
5415;DHT22;2730;51.512;7.504;2023-08-08T13:42:51;19.90;99.90
5415;DHT22;2730;51.512;7.504;2023-08-08T13:45:18;20.00;99.90
5415;DHT22;2730;51.512;7.504;2023-08-08T13:47:45;20.00;1.00
5415;DHT22;2730;51.512;7.504;2023-08-08T13:50:13;19.70;1.00
5415;DHT22;2730;51.512;7.504;2023-08-08T13:52:40;19.40;1.00
5415;DHT22;2730;51.512;7.504;2023-08-08T13:55:08;19.30;1.00
5415;DHT22;2730;51.512;7.504;2023-08-08T13:57:35;19.00;1.00
5415;DHT22;2730;51.512;7.504;2023-08-08T14:00:02;18.90;1.00
5415;DHT22;2730;51.512;7.504;2023-08-08T14:02:29;18.70;1.00
5415;DHT22;2730;51.512;7.504;2023-08-08T14:04:56;18.60;56.30
5415;DHT22;2730;51.512;7.504;2023-08-08T14:07:23;18.60;1.00
5415;DHT22;2730;51.512;7.504;2023-08-08T14:09:49;19.00;1.00
5415;DHT22;2730;51.512;7.504;2023-08-08T14:12:18;19.30;1.00
5415;DHT22;2730;51.512;7.504;2023-08-08T14:14:44;19.50;99.90
5415;DHT22;2730;51.512;7.504;2023-08-08T14:17:11;19.90;99.90
5415;DHT22;2730;51.512;7.504;2023-08-08T14:19:38;20.20;99.90
5415;DHT22;2730;51.512;7.504;2023-08-08T14:22:05;20.20;99.90
5415;DHT22;2730;51.512;7.504;2023-08-08T14:24:31;20.20;48.80
5415;DHT22;2730;51.512;7.504;2023-08-08T14:26:58;19.90;18.90
5415;DHT22;2730;51.512;7.504;2023-08-08T14:29:26;19.80;36.40
5415;DHT22;2730;51.512;7.504;2023-08-08T14:31:53;19.70;65.20
5415;DHT22;2730;51.512;7.504;2023-08-08T14:34:28;19.60;86.40
5415;DHT22;2730;51.512;7.504;2023-08-08T14:36:55;19.60;99.90
5415;DHT22;2730;51.512;7.504;2023-08-08T14:39:23;19.70;99.90
5415;DHT22;2730;51.512;7.504;2023-08-08T14:41:49;19.80;99.90
5415;DHT22;2730;51.512;7.504;2023-08-08T14:44:17;19.80;99.90
5415;DHT22;2730;51.512;7.504;2023-08-08T14:46:45;19.60;99.90
5415;DHT22;2730;51.512;7.504;2023-08-08T14:49:12;19.60;99.90
5415;DHT22;2730;51.512;7.504;2023-08-08T14:51:38;19.60;99.90
5415;DHT22;2730;51.512;7.504;2023-08-08T14:54:05;19.60;99.90
5415;DHT22;2730;51.512;7.504;2023-08-08T14:56:32;19.30;99.90
5415;DHT22;2730;51.512;7.504;2023-08-08T14:58:59;19.40;99.90
5415;DHT22;2730;51.512;7.504;2023-08-08T15:01:25;19.50;99.90
5415;DHT22;2730;51.512;7.504;2023-08-08T15:03:54;19.90;99.90
5415;DHT22;2730;51.512;7.504;2023-08-08T15:06:22;20.00;57.60
5415;DHT22;2730;51.512;7.504;2023-08-08T15:08:49;20.10;59.60
5415;DHT22;2730;51.512;7.504;2023-08-08T15:11:16;20.00;26.60
5415;DHT22;2730;51.512;7.504;2023-08-08T15:13:43;19.90;35.10
5415;DHT22;2730;51.512;7.504;2023-08-08T15:16:10;19.80;57.80
5415;DHT22;2730;51.512;7.504;2023-08-08T15:18:36;20.00;57.00
5415;DHT22;2730;51.512;7.504;2023-08-08T15:21:04;19.90;18.20
5415;DHT22;2730;51.512;7.504;2023-08-08T15:23:31;19.90;69.70
5415;DHT22;2730;51.512;7.504;2023-08-08T15:25:58;19.80;18.00
5415;DHT22;2730;51.512;7.504;2023-08-08T15:28:25;19.60;20.60
5415;DHT22;2730;51.512;7.504;2023-08-08T15:30:52;19.60;37.40
5415;DHT22;2730;51.512;7.504;2023-08-08T15:33:19;19.60;66.50
5415;DHT22;2730;51.512;7.504;2023-08-08T15:35:46;19.60;62.30
5415;DHT22;2730;51.512;7.504;2023-08-08T15:38:14;19.70;39.60
5415;DHT22;2730;51.512;7.504;2023-08-08T15:40:40;19.60;1.00
5415;DHT22;2730;51.512;7.504;2023-08-08T15:43:07;19.70;1.00
5415;DHT22;2730;51.512;7.504;2023-08-08T15:45:34;19.90;1.00
5415;DHT22;2730;51.512;7.504;2023-08-08T15:48:01;19.80;1.00
5415;DHT22;2730;51.512;7.504;2023-08-08T15:50:28;19.60;1.00
5415;DHT22;2730;51.512;7.504;2023-08-08T15:52:55;19.70;1.00
5415;DHT22;2730;51.512;7.504;2023-08-08T15:55:23;19.90;1.00
5415;DHT22;2730;51.512;7.504;2023-08-08T15:57:50;19.90;1.00
5415;DHT22;2730;51.512;7.504;2023-08-08T16:00:17;19.90;1.00
5415;DHT22;2730;51.512;7.504;2023-08-08T16:02:45;19.90;1.00
5415;DHT22;2730;51.512;7.504;2023-08-08T16:05:12;19.80;1.00
5415;DHT22;2730;51.512;7.504;2023-08-08T16:07:38;19.70;1.00